Time;durP1;ratioP1;P1;durP2;ratioP2;P2;SDS_P1;SDS_P2;PMS_P1;PMS_P2;Temp;Humidity;BMP_temperature;BMP_pressure;BME280_temperature;BME280_humidity;BME280_pressure;Samples;Min_cycle;Max_cycle;Signal;HPM_P1;HPM_P2
2022/12/03 00:00:49;;;;;;;0.30;0.30;;;4.60;99.90;;;;;;5022593;28;20506;-64
2022/12/03 00:03:15;;;;;;;0.93;0.80;;;4.70;99.90;;;;;;5008981;28;20046;-64
2022/12/03 00:05:41;;;;;;;9.18;2.03;;;4.60;99.90;;;;;;5010520;28;20065;-63
2022/12/03 00:08:06;;;;;;;0.38;0.38;;;4.50;99.90;;;;;;5008992;28;20046;-64
2022/12/03 00:10:32;;;;;;;0.10;0.10;;;4.60;99.90;;;;;;5007633;28;20045;-64
2022/12/03 00:12:57;;;;;;;0.10;0.10;;;4.50;99.90;;;;;;5017423;28;20049;-64
2022/12/03 00:15:23;;;;;;;0.43;0.43;;;4.60;99.90;;;;;;5029203;28;20038;-65
2022/12/03 00:17:48;;;;;;;0.82;0.82;;;4.50;99.90;;;;;;5021473;28;20390;-65
2022/12/03 00:20:20;;;;;;;0.50;0.50;;;4.50;99.90;;;;;;5022249;28;20041;-66
2022/12/03 00:22:45;;;;;;;0.75;0.75;;;4.50;99.90;;;;;;5025294;28;20092;-66
2022/12/03 00:25:11;;;;;;;0.93;0.93;;;4.50;99.90;;;;;;5023521;28;20085;-66
2022/12/03 00:27:37;;;;;;;0.80;0.80;;;4.50;99.90;;;;;;5007747;28;20456;-65
2022/12/03 00:30:04;;;;;;;0.10;0.10;;;4.40;99.90;;;;;;5012905;28;20496;-66
2022/12/03 00:32:29;;;;;;;0.10;0.10;;;4.40;99.90;;;;;;5027479;28;20045;-65
2022/12/03 00:34:55;;;;;;;0.75;0.75;;;4.40;99.90;;;;;;5025201;28;20622;-65
2022/12/03 00:37:20;;;;;;;0.63;0.63;;;4.40;99.90;;;;;;5018933;28;20692;-65
2022/12/03 00:39:46;;;;;;;6.18;1.45;;;4.40;99.90;;;;;;5022849;28;20041;-65
2022/12/03 00:42:12;;;;;;;0.20;0.20;;;4.40;99.90;;;;;;5029302;28;20053;-65
2022/12/03 00:44:37;;;;;;;0.20;0.20;;;4.40;99.90;;;;;;5030830;28;20044;-66
2022/12/03 00:47:03;;;;;;;0.13;0.13;;;4.50;99.90;;;;;;5013821;28;20120;-65
2022/12/03 00:49:29;;;;;;;0.10;0.10;;;4.50;99.90;;;;;;5012300;28;20061;-65
2022/12/03 00:51:55;;;;;;;1.80;0.82;;;4.50;99.90;;;;;;5013124;28;20132;-65
2022/12/03 00:54:21;;;;;;;0.63;0.63;;;4.60;99.90;;;;;;5011740;28;20522;-65
2022/12/03 00:56:47;;;;;;;0.63;0.63;;;4.60;99.90;;;;;;5029761;28;20053;-65
2022/12/03 00:59:12;;;;;;;0.10;0.10;;;4.70;99.90;;;;;;5031774;28;20045;-66
2022/12/03 01:01:38;;;;;;;1.10;0.95;;;4.70;99.90;;;;;;5018136;28;20057;-65
2022/12/03 01:04:03;;;;;;;0.10;0.10;;;4.70;99.90;;;;;;5019547;28;20136;-65
2022/12/03 01:06:29;;;;;;;0.10;0.10;;;4.80;99.90;;;;;;5018543;28;20085;-65
2022/12/03 01:08:55;;;;;;;0.10;0.10;;;4.90;99.90;;;;;;5018873;28;20046;-65
2022/12/03 01:11:40;;;;;;;0.20;0.20;;;4.90;99.90;;;;;;5031051;28;20056;-65
2022/12/03 01:14:09;;;;;;;0.10;0.10;;;4.90;99.90;;;;;;5017725;28;20060;-65
2022/12/03 01:16:36;;;;;;;0.52;0.52;;;5.00;99.90;;;;;;5015847;28;20049;-65
2022/12/03 01:19:03;;;;;;;0.10;0.10;;;5.10;99.90;;;;;;5010988;28;20042;-65
2022/12/03 01:21:29;;;;;;;0.30;0.30;;;5.10;99.90;;;;;;5011008;28;20042;-65
2022/12/03 01:23:55;;;;;;;0.17;0.17;;;5.20;99.90;;;;;;5011246;28;20042;-65
2022/12/03 01:26:21;;;;;;;0.10;0.10;;;5.30;99.90;;;;;;5015576;28;20163;-65
2022/12/03 01:28:46;;;;;;;0.10;0.10;;;5.20;99.90;;;;;;5010467;28;20109;-65
2022/12/03 01:33:56;;;;;;;0.10;0.10;;;5.20;99.90;;;;;;5013825;28;20076;-65
2022/12/03 01:36:22;;;;;;;0.30;0.30;;;5.20;99.90;;;;;;5011834;28;20050;-65
2022/12/03 01:38:48;;;;;;;0.10;0.10;;;5.20;99.90;;;;;;5013251;28;20125;-65
2022/12/03 01:41:16;;;;;;;0.38;0.38;;;5.40;99.90;;;;;;5029507;28;20045;-65
2022/12/03 01:43:42;;;;;;;0.47;0.47;;;5.40;99.90;;;;;;5031521;28;20045;-65
2022/12/03 01:46:11;;;;;;;0.40;0.40;;;5.50;99.90;;;;;;5022743;28;20108;-66
2022/12/03 01:48:37;;;;;;;3.72;1.00;;;5.40;99.90;;;;;;5011014;28;20532;-65
2022/12/03 01:51:03;;;;;;;0.63;0.63;;;5.40;99.90;;;;;;5021597;28;20085;-65
2022/12/03 01:53:28;;;;;;;2.53;0.50;;;5.40;99.90;;;;;;5016071;28;20077;-65
2022/12/03 01:55:54;;;;;;;0.10;0.10;;;5.50;99.90;;;;;;5024140;28;20859;-65
2022/12/03 01:58:25;;;;;;;0.38;0.38;;;5.40;99.90;;;;;;5023253;28;20068;-65
2022/12/03 02:00:51;;;;;;;0.65;0.65;;;5.40;99.90;;;;;;5026153;28;20134;-65
2022/12/03 02:03:23;;;;;;;0.10;0.10;;;5.40;99.90;;;;;;5021183;28;20450;-65
2022/12/03 02:05:49;;;;;;;0.10;0.10;;;5.50;99.90;;;;;;5014205;28;20071;-65
2022/12/03 02:08:33;;;;;;;0.10;0.10;;;5.40;99.90;;;;;;5010861;28;20045;-63
2022/12/03 02:11:11;;;;;;;0.10;0.10;;;5.30;99.90;;;;;;5010442;28;20046;-63
2022/12/03 02:13:37;;;;;;;0.10;0.10;;;5.20;99.90;;;;;;5026891;28;20418;-63
2022/12/03 02:16:03;;;;;;;0.10;0.10;;;5.30;99.90;;;;;;5020750;28;20057;-63
2022/12/03 02:18:28;;;;;;;0.10;0.10;;;5.40;99.90;;;;;;5012846;28;20045;-63
2022/12/03 02:21:17;;;;;;;0.22;0.22;;;5.60;99.90;;;;;;5030661;28;20120;-63
2022/12/03 02:23:48;;;;;;;0.30;0.30;;;5.60;99.90;;;;;;5016998;28;20058;-63
2022/12/03 02:26:14;;;;;;;0.15;0.15;;;5.50;99.90;;;;;;5011856;28;20112;-63
2022/12/03 02:28:40;;;;;;;0.40;0.40;;;5.50;99.90;;;;;;5010380;28;20129;-63
2022/12/03 02:31:06;;;;;;;0.10;0.10;;;5.60;99.90;;;;;;5009072;28;20096;-63
2022/12/03 02:33:31;;;;;;;0.73;0.73;;;5.40;99.90;;;;;;5012242;28;20417;-63
2022/12/03 02:35:57;;;;;;;0.17;0.17;;;5.50;99.90;;;;;;5030290;28;20046;-64
2022/12/03 02:38:25;;;;;;;0.10;0.10;;;5.60;99.90;;;;;;5015183;28;20042;-64
2022/12/03 02:40:55;;;;;;;0.10;0.10;;;5.40;99.90;;;;;;5009234;28;20060;-64
2022/12/03 02:43:22;;;;;;;0.10;0.10;;;5.50;99.90;;;;;;5010921;28;20394;-64
2022/12/03 02:45:51;;;;;;;0.30;0.30;;;5.40;99.90;;;;;;5012347;28;20057;-64
2022/12/03 02:48:25;;;;;;;0.57;0.57;;;5.60;99.90;;;;;;5017175;28;20038;-64
2022/12/03 02:50:54;;;;;;;0.22;0.22;;;5.60;99.90;;;;;;5016109;28;20186;-64
2022/12/03 02:53:24;;;;;;;0.30;0.30;;;5.50;99.90;;;;;;5029353;28;20522;-64
2022/12/03 02:55:51;;;;;;;0.38;0.38;;;5.50;99.90;;;;;;5022090;28;20432;-64
2022/12/03 02:58:18;;;;;;;0.17;0.17;;;5.50;99.90;;;;;;5034753;28;20073;-63
2022/12/03 03:00:44;;;;;;;0.20;0.20;;;5.40;99.90;;;;;;5011024;28;20042;-64
2022/12/03 03:03:10;;;;;;;0.20;0.20;;;5.50;99.90;;;;;;5042753;28;20047;-64
2022/12/03 03:05:38;;;;;;;0.35;0.35;;;5.40;99.90;;;;;;5037652;28;20400;-63
2022/12/03 03:08:05;;;;;;;0.10;0.10;;;5.40;99.90;;;;;;5021530;28;20564;-64
2022/12/03 03:10:34;;;;;;;1.00;0.90;;;5.40;99.90;;;;;;5010482;28;20444;-64
2022/12/03 03:13:02;;;;;;;0.55;0.55;;;5.40;99.90;;;;;;5025767;28;20574;-64
2022/12/03 03:15:28;;;;;;;0.10;0.10;;;5.50;99.90;;;;;;5034721;28;20064;-64
2022/12/03 03:17:54;;;;;;;0.57;0.57;;;5.40;99.90;;;;;;5026432;28;20045;-64
2022/12/03 03:20:19;;;;;;;0.95;0.93;;;5.30;99.90;;;;;;5033740;28;20103;-64
2022/12/03 03:22:45;;;;;;;0.45;0.45;;;5.30;99.90;;;;;;5045265;28;20049;-64
2022/12/03 03:25:16;;;;;;;0.10;0.10;;;5.30;99.90;;;;;;5027648;28;20050;-64
2022/12/03 03:27:42;;;;;;;0.10;0.10;;;5.30;99.90;;;;;;5009768;28;20402;-64
2022/12/03 03:30:08;;;;;;;0.35;0.35;;;5.30;99.90;;;;;;5014431;28;20072;-64
2022/12/03 03:32:35;;;;;;;1.73;1.65;;;5.20;99.90;;;;;;5024981;28;20053;-64
2022/12/03 03:35:01;;;;;;;0.55;0.55;;;5.30;99.90;;;;;;5043342;28;20108;-64
2022/12/03 03:37:27;;;;;;;2.55;1.17;;;5.30;99.90;;;;;;5031318;28;20168;-64
2022/12/03 03:39:53;;;;;;;0.38;0.38;;;5.30;99.90;;;;;;5031177;28;20041;-64
2022/12/03 03:42:19;;;;;;;0.10;0.10;;;5.30;99.90;;;;;;5024343;28;20060;-64
2022/12/03 03:44:46;;;;;;;0.52;0.52;;;5.20;99.90;;;;;;5028317;28;20040;-64
2022/12/03 03:47:13;;;;;;;0.00;0.00;;;5.30;99.90;;;;;;5046497;28;20045;-64
2022/12/03 03:49:40;;;;;;;0.65;0.65;;;5.30;99.90;;;;;;5048356;28;20045;-64
2022/12/03 03:52:08;;;;;;;0.10;0.10;;;5.30;99.90;;;;;;5023373;28;20079;-64
2022/12/03 03:54:35;;;;;;;0.10;0.10;;;5.20;99.90;;;;;;5025872;28;20040;-64
2022/12/03 03:57:00;;;;;;;0.20;0.20;;;5.40;99.90;;;;;;5039006;28;20139;-64
2022/12/03 03:59:27;;;;;;;0.10;0.10;;;5.40;99.90;;;;;;5014336;28;20122;-64
2022/12/03 04:01:52;;;;;;;0.43;0.43;;;5.40;99.90;;;;;;5009820;28;20504;-64
2022/12/03 04:04:23;;;;;;;0.10;0.10;;;5.40;99.90;;;;;;5023810;28;20037;-64
2022/12/03 04:06:48;;;;;;;0.22;0.22;;;5.50;99.90;;;;;;5030934;28;20077;-64
2022/12/03 04:09:14;;;;;;;2.35;1.08;;;5.40;99.90;;;;;;5047592;28;20077;-64
2022/12/03 04:14:24;;;;;;;0.20;0.20;;;5.50;99.90;;;;;;5035300;28;20046;-64
2022/12/03 04:16:50;;;;;;;0.22;0.22;;;5.50;99.90;;;;;;5016243;28;20045;-64
2022/12/03 04:19:15;;;;;;;0.30;0.30;;;5.50;99.90;;;;;;5031417;28;20044;-64
2022/12/03 04:24:25;;;;;;;0.77;0.77;;;5.50;99.90;;;;;;5039692;28;20151;-64
2022/12/03 04:29:35;;;;;;;0.75;0.75;;;5.70;99.90;;;;;;5013077;28;20050;-64
2022/12/03 04:37:29;;;;;;;0.10;0.10;;;5.60;99.90;;;;;;5007832;28;20060;-64
2022/12/03 04:39:55;;;;;;;1.15;1.15;;;5.60;99.90;;;;;;5008292;28;20038;-64
2022/12/03 04:42:20;;;;;;;0.10;0.10;;;5.60;99.90;;;;;;5007926;28;20139;-64
2022/12/03 04:44:46;;;;;;;1.05;1.00;;;5.80;99.90;;;;;;5007636;28;20085;-64
2022/12/03 04:47:17;;;;;;;0.57;0.57;;;5.70;99.90;;;;;;5007769;28;20038;-64
2022/12/03 04:49:48;;;;;;;0.10;0.10;;;5.70;99.90;;;;;;5013299;28;20147;-64
2022/12/03 04:52:15;;;;;;;0.32;0.32;;;5.70;99.90;;;;;;5024631;28;20048;-64
2022/12/03 04:54:41;;;;;;;0.10;0.10;;;5.80;99.90;;;;;;5007912;28;20091;-64
2022/12/03 04:57:07;;;;;;;0.10;0.10;;;5.70;99.90;;;;;;5007992;28;20054;-64
2022/12/03 04:59:34;;;;;;;0.00;0.00;;;5.70;99.90;;;;;;5007763;28;20049;-64
2022/12/03 05:02:00;;;;;;;0.32;0.32;;;5.70;99.90;;;;;;5007551;28;20038;-64
2022/12/03 05:04:26;;;;;;;5.03;1.48;;;5.70;99.90;;;;;;5008514;28;20034;-64
2022/12/03 05:06:51;;;;;;;0.80;0.80;;;5.70;99.90;;;;;;5008833;28;20093;-64
2022/12/03 05:09:17;;;;;;;0.55;0.35;;;5.90;99.90;;;;;;5027879;28;20560;-64
2022/12/03 05:11:43;;;;;;;1.52;1.00;;;6.00;99.90;;;;;;5026625;28;20048;-64
2022/12/03 05:14:09;;;;;;;0.40;0.40;;;5.80;99.90;;;;;;5027418;28;20045;-64
2022/12/03 05:16:35;;;;;;;0.55;0.55;;;5.80;99.90;;;;;;5008321;28;20123;-64
2022/12/03 05:19:02;;;;;;;0.55;0.55;;;5.90;99.90;;;;;;5016648;28;20049;-64
2022/12/03 05:21:28;;;;;;;2.55;1.23;;;5.80;99.90;;;;;;5019018;28;20053;-65
2022/12/03 05:23:54;;;;;;;0.20;0.20;;;5.70;99.90;;;;;;5014475;28;20510;-63
2022/12/03 05:26:19;;;;;;;0.32;0.32;;;5.70;99.90;;;;;;5026108;28;20488;-64
2022/12/03 05:28:45;;;;;;;0.82;0.82;;;5.80;99.90;;;;;;5010735;28;20046;-64
2022/12/03 05:31:11;;;;;;;6.18;1.85;;;5.80;99.90;;;;;;5011101;28;20556;-64
2022/12/03 05:33:36;;;;;;;0.10;0.10;;;5.70;99.90;;;;;;5009603;28;20045;-64
2022/12/03 05:36:02;;;;;;;0.20;0.20;;;5.80;99.90;;;;;;5033886;28;20154;-64
2022/12/03 05:38:28;;;;;;;0.40;0.40;;;5.70;99.90;;;;;;5034934;28;20034;-64
2022/12/03 05:40:53;;;;;;;3.90;1.00;;;5.70;99.90;;;;;;5029530;28;20049;-64
2022/12/03 05:43:19;;;;;;;2.63;1.08;;;5.70;99.90;;;;;;5021733;28;20037;-64
2022/12/03 05:45:45;;;;;;;0.10;0.10;;;5.60;99.90;;;;;;5049434;28;20045;-64
2022/12/03 05:48:13;;;;;;;4.38;1.02;;;5.60;99.90;;;;;;5032615;28;20116;-64
2022/12/03 05:50:40;;;;;;;0.57;0.57;;;5.60;99.90;;;;;;5026508;28;20041;-63
2022/12/03 05:53:06;;;;;;;0.20;0.20;;;5.60;99.90;;;;;;5025551;28;20059;-63
2022/12/03 05:55:31;;;;;;;1.45;0.95;;;5.60;99.90;;;;;;5017344;28;20120;-64
2022/12/03 05:57:57;;;;;;;0.55;0.55;;;5.70;99.90;;;;;;5031119;28;20041;-64
2022/12/03 06:00:28;;;;;;;0.63;0.57;;;5.50;99.90;;;;;;5030692;28;20045;-63
2022/12/03 06:02:54;;;;;;;0.30;0.30;;;5.70;99.90;;;;;;5011596;28;20553;-64
2022/12/03 06:05:21;;;;;;;1.52;1.50;;;5.50;99.90;;;;;;5010745;28;20046;-63
2022/12/03 06:07:49;;;;;;;0.57;0.57;;;5.60;99.90;;;;;;5012247;28;20080;-63
2022/12/03 06:10:18;;;;;;;0.45;0.45;;;5.70;99.90;;;;;;5030334;28;20037;-63
2022/12/03 06:12:43;;;;;;;0.30;0.30;;;5.80;99.90;;;;;;5024582;28;20050;-64
2022/12/03 06:15:10;;;;;;;3.95;0.95;;;5.70;99.90;;;;;;5014097;28;20042;-64
2022/12/03 06:17:36;;;;;;;1.45;1.40;;;5.60;99.90;;;;;;5022783;28;20594;-64
2022/12/03 06:20:02;;;;;;;0.10;0.10;;;5.60;99.90;;;;;;5030655;28;20045;-64
2022/12/03 06:22:28;;;;;;;0.75;0.75;;;5.60;99.90;;;;;;5010155;28;20049;-64
2022/12/03 06:24:53;;;;;;;0.65;0.65;;;5.60;99.90;;;;;;5010640;28;20397;-64
2022/12/03 06:27:22;;;;;;;0.40;0.40;;;5.70;99.90;;;;;;5019404;28;20042;-64
2022/12/03 06:29:48;;;;;;;0.10;0.10;;;5.70;99.90;;;;;;5009685;28;20103;-64
2022/12/03 06:32:13;;;;;;;0.85;0.85;;;5.60;99.90;;;;;;5025067;28;20057;-63
2022/12/03 06:34:39;;;;;;;0.10;0.10;;;5.60;99.90;;;;;;5011512;28;20046;-64
2022/12/03 06:37:04;;;;;;;3.92;0.73;;;5.60;99.90;;;;;;5009959;28;20046;-63
2022/12/03 06:39:30;;;;;;;1.92;1.83;;;5.60;99.90;;;;;;5010459;28;20042;-64
2022/12/03 06:41:56;;;;;;;1.70;1.35;;;5.50;99.90;;;;;;5009692;28;20092;-63
2022/12/03 06:44:21;;;;;;;1.10;1.00;;;5.50;99.90;;;;;;5011062;28;20596;-63
2022/12/03 06:46:47;;;;;;;0.40;0.40;;;5.60;99.90;;;;;;5013000;28;20049;-64
2022/12/03 06:49:12;;;;;;;0.98;0.95;;;5.70;99.90;;;;;;5024362;28;20501;-63
2022/12/03 06:51:38;;;;;;;0.30;0.30;;;5.80;99.90;;;;;;5023256;28;20080;-64
2022/12/03 06:54:04;;;;;;;0.10;0.10;;;5.60;99.90;;;;;;5049111;28;20048;-63
2022/12/03 06:56:30;;;;;;;0.13;0.13;;;5.80;99.90;;;;;;5025947;28;20038;-64
2022/12/03 06:58:55;;;;;;;0.13;0.13;;;5.70;99.90;;;;;;5007994;28;20085;-64
2022/12/03 07:01:21;;;;;;;0.85;0.85;;;5.80;99.90;;;;;;5034363;28;20053;-63
2022/12/03 07:03:47;;;;;;;0.40;0.40;;;5.80;99.90;;;;;;5049482;28;20087;-63
2022/12/03 07:06:12;;;;;;;0.45;0.45;;;5.80;99.90;;;;;;5016420;28;20060;-63
2022/12/03 07:08:38;;;;;;;0.43;0.43;;;5.90;99.90;;;;;;5026130;28;20151;-64
2022/12/03 07:11:04;;;;;;;0.20;0.20;;;5.80;99.90;;;;;;5011328;28;20136;-64
2022/12/03 07:13:29;;;;;;;0.63;0.50;;;5.70;99.90;;;;;;5012373;28;20124;-63
2022/12/03 07:15:55;;;;;;;1.60;1.23;;;5.80;99.90;;;;;;5018798;28;20175;-64
2022/12/03 07:18:20;;;;;;;1.75;1.65;;;5.80;99.90;;;;;;5010369;28;20053;-63
2022/12/03 07:20:46;;;;;;;0.30;0.30;;;5.70;99.90;;;;;;5007682;28;20662;-64
2022/12/03 07:23:12;;;;;;;1.23;0.73;;;5.70;99.90;;;;;;5016268;28;20042;-64
2022/12/03 07:25:37;;;;;;;1.75;0.65;;;5.60;99.90;;;;;;5028387;28;20056;-64
2022/12/03 07:28:03;;;;;;;0.25;0.25;;;5.60;99.90;;;;;;5014364;28;20456;-64
2022/12/03 07:30:29;;;;;;;0.77;0.77;;;5.70;99.90;;;;;;5014915;28;20056;-64
2022/12/03 07:32:54;;;;;;;3.22;0.93;;;5.70;99.90;;;;;;5009003;28;20046;-64
2022/12/03 07:35:35;;;;;;;0.73;0.73;;;5.60;99.90;;;;;;5009355;28;20056;-64
2022/12/03 07:38:00;;;;;;;2.17;1.65;;;5.70;99.90;;;;;;5009181;28;20046;-64
2022/12/03 07:40:26;;;;;;;0.10;0.10;;;5.80;99.90;;;;;;5018580;28;20041;-64
2022/12/03 07:42:52;;;;;;;0.17;0.17;;;5.70;99.90;;;;;;5027821;28;20324;-64
2022/12/03 07:45:17;;;;;;;1.00;1.00;;;5.90;99.90;;;;;;5029574;28;20046;-64
2022/12/03 07:47:43;;;;;;;0.20;0.20;;;5.90;99.90;;;;;;5047997;28;20040;-64
2022/12/03 07:50:09;;;;;;;0.13;0.13;;;6.00;99.90;;;;;;5011829;28;20070;-63
2022/12/03 07:52:34;;;;;;;0.77;0.77;;;5.90;99.90;;;;;;5018295;28;20125;-64
2022/12/03 07:55:00;;;;;;;2.28;1.70;;;5.90;99.90;;;;;;5010939;28;20486;-64
2022/12/03 07:57:25;;;;;;;0.30;0.30;;;5.80;99.90;;;;;;5033872;28;20091;-64
2022/12/03 07:59:51;;;;;;;0.30;0.30;;;5.70;99.90;;;;;;5012387;28;20048;-64
2022/12/03 08:02:16;;;;;;;1.45;1.20;;;5.80;99.90;;;;;;5007551;28;20066;-64
2022/12/03 08:04:42;;;;;;;0.60;0.60;;;5.80;99.90;;;;;;5011902;28;20072;-64
2022/12/03 08:07:07;;;;;;;0.60;0.60;;;5.70;99.90;;;;;;5009307;28;20045;-64
2022/12/03 08:09:33;;;;;;;0.20;0.20;;;5.50;99.90;;;;;;5006672;28;20058;-63
2022/12/03 08:12:01;;;;;;;0.28;0.28;;;5.50;99.90;;;;;;5009049;28;20088;-63
2022/12/03 08:14:27;;;;;;;0.55;0.55;;;5.50;99.90;;;;;;5012347;28;20047;-64
2022/12/03 08:16:52;;;;;;;0.28;0.28;;;5.80;99.90;;;;;;5009055;28;20037;-63
2022/12/03 08:19:18;;;;;;;0.70;0.70;;;5.80;99.90;;;;;;5008398;28;20046;-64
2022/12/03 08:21:44;;;;;;;0.28;0.28;;;5.80;99.90;;;;;;5009165;28;20057;-64
2022/12/03 08:24:12;;;;;;;0.20;0.20;;;5.70;99.90;;;;;;5007371;28;20494;-64
2022/12/03 08:26:38;;;;;;;0.60;0.60;;;5.70;99.90;;;;;;5011797;28;20042;-64
2022/12/03 08:29:08;;;;;;;0.38;0.38;;;5.70;99.90;;;;;;5008720;28;20046;-64
2022/12/03 08:31:34;;;;;;;1.13;0.88;;;5.80;99.90;;;;;;5007137;28;20100;-63
2022/12/03 08:34:21;;;;;;;0.10;0.10;;;5.70;99.90;;;;;;5008722;28;20077;-64
2022/12/03 08:36:50;;;;;;;0.20;0.20;;;5.60;99.90;;;;;;5017598;28;20595;-64
2022/12/03 08:39:38;;;;;;;0.85;0.75;;;5.60;99.90;;;;;;5026963;28;20416;-64
2022/12/03 08:45:26;;;;;;;6.53;0.95;;;5.70;99.90;;;;;;5007679;28;20054;-64
2022/12/03 08:47:54;;;;;;;0.75;0.75;;;5.60;99.90;;;;;;5022998;28;20124;-64
2022/12/03 08:50:32;;;;;;;1.60;1.50;;;5.70;99.90;;;;;;5007917;28;20045;-63
2022/12/03 08:53:07;;;;;;;2.35;1.95;;;5.80;99.90;;;;;;5008415;28;20571;-63
2022/12/03 08:55:34;;;;;;;4.15;0.68;;;5.70;99.90;;;;;;5009278;28;20059;-64
2022/12/03 08:57:59;;;;;;;0.60;0.55;;;5.70;99.90;;;;;;5007747;28;20046;-63
2022/12/03 09:00:25;;;;;;;0.10;0.10;;;5.60;99.90;;;;;;5007339;28;20125;-63
2022/12/03 09:02:53;;;;;;;5.32;0.80;;;5.70;99.90;;;;;;5018385;28;20440;-63
2022/12/03 09:05:22;;;;;;;0.82;0.82;;;5.70;99.90;;;;;;5011869;28;20084;-64
2022/12/03 09:07:48;;;;;;;0.98;0.98;;;5.70;99.90;;;;;;5013191;28;20053;-64
2022/12/03 09:10:14;;;;;;;0.43;0.43;;;5.70;99.90;;;;;;5032296;28;20041;-63
2022/12/03 09:12:40;;;;;;;1.58;1.48;;;5.60;99.90;;;;;;5016479;28;20057;-64
2022/12/03 09:15:06;;;;;;;0.20;0.20;;;5.70;99.90;;;;;;5026549;28;20038;-63
2022/12/03 09:17:31;;;;;;;0.10;0.10;;;5.70;99.90;;;;;;5024318;28;20069;-64
2022/12/03 09:19:57;;;;;;;0.40;0.40;;;5.50;99.90;;;;;;5021331;28;20092;-64
2022/12/03 09:22:23;;;;;;;3.50;1.00;;;5.50;99.90;;;;;;5012390;28;20375;-65
2022/12/03 09:24:48;;;;;;;0.25;0.25;;;5.50;99.90;;;;;;5011273;28;20034;-64
2022/12/03 09:27:14;;;;;;;1.20;1.10;;;5.60;99.90;;;;;;5016677;28;20068;-63
2022/12/03 09:29:39;;;;;;;0.75;0.75;;;5.50;99.90;;;;;;5029506;28;20042;-63
2022/12/03 09:32:05;;;;;;;1.85;1.75;;;5.60;99.90;;;;;;5011482;28;20057;-63
2022/12/03 09:34:30;;;;;;;0.20;0.20;;;5.60;99.90;;;;;;5011312;28;20038;-63
2022/12/03 09:36:56;;;;;;;0.10;0.10;;;5.50;99.90;;;;;;5025993;28;20103;-63
2022/12/03 09:39:21;;;;;;;0.30;0.30;;;5.60;99.90;;;;;;5015030;28;20085;-63
2022/12/03 09:41:48;;;;;;;0.30;0.30;;;5.60;99.90;;;;;;5012550;28;20076;-64
2022/12/03 09:44:13;;;;;;;1.08;0.73;;;5.50;99.90;;;;;;5021039;28;20069;-63
2022/12/03 09:46:40;;;;;;;1.05;1.05;;;5.50;99.90;;;;;;5010646;28;20505;-64
2022/12/03 09:49:09;;;;;;;0.25;0.25;;;5.60;99.90;;;;;;5011710;28;20053;-63
2022/12/03 09:51:35;;;;;;;1.13;1.05;;;5.70;99.90;;;;;;5010601;28;20512;-63
2022/12/03 09:54:04;;;;;;;0.10;0.10;;;5.80;99.90;;;;;;5011197;28;20046;-64
2022/12/03 09:56:30;;;;;;;0.85;0.85;;;5.60;99.90;;;;;;5023994;28;20045;-66
2022/12/03 09:58:56;;;;;;;1.10;0.95;;;5.70;99.90;;;;;;5015963;28;20493;-64
2022/12/03 10:01:22;;;;;;;0.10;0.10;;;5.60;99.90;;;;;;5023258;28;20102;-64
2022/12/03 10:03:51;;;;;;;0.47;0.47;;;5.60;99.90;;;;;;5038416;28;20064;-63
2022/12/03 10:06:19;;;;;;;0.57;0.57;;;5.70;99.90;;;;;;5019487;28;20038;-63
2022/12/03 10:08:48;;;;;;;0.55;0.55;;;5.90;99.90;;;;;;5009719;28;20049;-63
2022/12/03 10:11:15;;;;;;;0.25;0.25;;;5.70;99.90;;;;;;5025474;28;20044;-63
2022/12/03 10:13:41;;;;;;;0.47;0.47;;;5.80;99.90;;;;;;5029426;28;20038;-63
2022/12/03 10:16:11;;;;;;;0.85;0.85;;;5.80;99.90;;;;;;5035083;28;20132;-63
2022/12/03 10:18:40;;;;;;;1.08;0.80;;;5.70;99.90;;;;;;5011406;28;20342;-63
2022/12/03 10:21:21;;;;;;;1.13;1.13;;;5.50;99.90;;;;;;5027193;28;20404;-64
2022/12/03 10:23:49;;;;;;;0.52;0.52;;;5.70;99.90;;;;;;5011454;28;20441;-63
2022/12/03 10:26:15;;;;;;;0.10;0.10;;;5.60;99.90;;;;;;5010446;28;20046;-63
2022/12/03 10:28:45;;;;;;;0.73;0.73;;;5.50;99.90;;;;;;5010724;28;20050;-63
2022/12/03 10:31:14;;;;;;;0.20;0.20;;;5.50;99.90;;;;;;5013616;28;20057;-63
2022/12/03 10:33:44;;;;;;;0.57;0.57;;;5.40;99.90;;;;;;5024101;28;20136;-64
2022/12/03 10:36:20;;;;;;;1.58;1.13;;;5.40;99.90;;;;;;5024024;28;20046;-64
2022/12/03 10:39:03;;;;;;;0.10;0.10;;;5.50;99.90;;;;;;5014281;28;20046;-64
2022/12/03 10:41:29;;;;;;;0.10;0.10;;;5.70;99.90;;;;;;5009678;28;20060;-63
2022/12/03 10:44:12;;;;;;;0.47;0.47;;;5.60;99.90;;;;;;5019888;28;20041;-63
2022/12/03 10:46:38;;;;;;;0.10;0.10;;;5.60;99.90;;;;;;5027633;28;20041;-63
2022/12/03 10:49:18;;;;;;;0.73;0.73;;;5.60;99.90;;;;;;5029511;28;20091;-63
2022/12/03 10:51:47;;;;;;;0.20;0.20;;;5.60;99.90;;;;;;5019465;28;20041;-63
2022/12/03 10:54:21;;;;;;;0.10;0.10;;;5.50;99.90;;;;;;5020847;28;20041;-63
2022/12/03 10:56:48;;;;;;;0.32;0.32;;;5.50;99.90;;;;;;5015083;28;20052;-63
2022/12/03 10:59:16;;;;;;;0.55;0.55;;;5.60;99.90;;;;;;5024363;28;20053;-63
2022/12/03 11:01:42;;;;;;;2.35;0.75;;;5.60;99.90;;;;;;5012124;28;21065;-64
2022/12/03 11:04:33;;;;;;;0.60;0.60;;;5.70;99.90;;;;;;5009703;28;20088;-63
2022/12/03 11:07:01;;;;;;;5.10;3.08;;;5.60;99.90;;;;;;5017862;28;20431;-63
2022/12/03 11:09:30;;;;;;;1.92;1.83;;;5.80;99.90;;;;;;5019007;28;20053;-63
2022/12/03 11:12:03;;;;;;;0.13;0.13;;;5.70;99.90;;;;;;5033234;28;20065;-63
2022/12/03 11:15:07;;;;;;;1.60;1.50;;;5.50;99.90;;;;;;5044833;28;20177;-63
2022/12/03 11:17:40;;;;;;;;;;;5.80;99.90;;;;;;4993914;28;20110;-63
2022/12/03 11:20:34;;;;;;;0.20;0.20;;;5.70;99.90;;;;;;5022552;28;19920;-63
2022/12/03 11:23:00;;;;;;;;;;;5.70;99.90;;;;;;5007400;28;20064;-63
2022/12/03 11:25:25;;;;;;;5.57;0.65;;;5.70;99.90;;;;;;5025962;28;20288;-63
2022/12/03 11:28:20;;;;;;;0.10;0.10;;;5.60;99.90;;;;;;5017777;28;20037;-64
2022/12/03 11:30:55;;;;;;;0.65;0.52;;;5.70;99.90;;;;;;5015291;28;20059;-64
2022/12/03 11:33:30;;;;;;;0.35;0.35;;;5.80;99.90;;;;;;5021830;28;20050;-63
2022/12/03 11:36:18;;;;;;;2.00;1.38;;;5.90;99.90;;;;;;5012009;28;20509;-63
2022/12/03 11:38:50;;;;;;;0.22;0.22;;;5.70;99.90;;;;;;5008616;28;20038;-63
2022/12/03 11:41:27;;;;;;;0.30;0.30;;;5.60;99.90;;;;;;5024122;28;20053;-63
2022/12/03 11:43:56;;;;;;;0.65;0.65;;;5.80;99.90;;;;;;5025319;28;20385;-63
2022/12/03 11:46:37;;;;;;;0.35;0.28;;;5.80;99.90;;;;;;5017997;28;20038;-63
2022/12/03 11:49:24;;;;;;;1.85;1.30;;;5.80;99.90;;;;;;5008020;28;20084;-63
2022/12/03 11:51:50;;;;;;;0.55;0.55;;;5.90;99.90;;;;;;5009014;28;20033;-63
2022/12/03 11:54:17;;;;;;;2.85;1.58;;;5.80;99.90;;;;;;5017398;28;20512;-63
2022/12/03 11:56:44;;;;;;;0.85;0.85;;;5.70;99.90;;;;;;5028133;28;20053;-63
2022/12/03 11:59:14;;;;;;;0.30;0.30;;;5.80;99.90;;;;;;5018934;28;20493;-63
2022/12/03 12:01:41;;;;;;;0.95;0.95;;;5.80;99.90;;;;;;5023252;28;20076;-66
2022/12/03 12:04:30;;;;;;;0.50;0.50;;;5.70;99.90;;;;;;5029146;28;20397;-63
2022/12/03 12:06:55;;;;;;;1.10;1.10;;;5.80;99.90;;;;;;5030315;28;20041;-63
2022/12/03 12:09:48;;;;;;;0.47;0.47;;;5.80;99.90;;;;;;5007835;28;20053;-63
2022/12/03 12:12:18;;;;;;;0.57;0.57;;;5.90;99.90;;;;;;5009467;28;20042;-63
2022/12/03 12:14:44;;;;;;;2.60;1.48;;;5.90;99.90;;;;;;5013900;28;20563;-64
2022/12/03 12:17:36;;;;;;;6.85;1.42;;;5.70;99.90;;;;;;5025369;28;20045;-65
2022/12/03 12:20:25;;;;;;;0.10;0.10;;;5.70;99.90;;;;;;5008879;28;20041;-64
2022/12/03 12:22:52;;;;;;;0.20;0.20;;;5.60;99.90;;;;;;5010099;28;20059;-64
2022/12/03 12:25:40;;;;;;;1.20;1.10;;;5.70;99.90;;;;;;5023057;28;20509;-64
2022/12/03 12:28:06;;;;;;;0.20;0.20;;;5.80;99.90;;;;;;5008908;28;20045;-64
2022/12/03 12:30:32;;;;;;;0.10;0.10;;;5.80;99.90;;;;;;5006662;28;20510;-64
2022/12/03 12:33:19;;;;;;;1.65;1.55;;;5.80;99.90;;;;;;5009703;28;20050;-63
2022/12/03 12:35:45;;;;;;;0.20;0.20;;;5.70;99.90;;;;;;5037665;28;20045;-64
2022/12/03 12:38:17;;;;;;;0.20;0.20;;;5.80;99.90;;;;;;5017310;28;20051;-64
2022/12/03 12:40:47;;;;;;;0.38;0.38;;;5.70;99.90;;;;;;5014815;28;20115;-64
2022/12/03 12:43:25;;;;;;;0.52;0.52;;;5.60;99.90;;;;;;5014842;28;20091;-63
2022/12/03 12:45:58;;;;;;;0.10;0.10;;;5.70;99.90;;;;;;5014250;28;20044;-64
2022/12/03 12:48:32;;;;;;;6.73;1.83;;;5.70;99.90;;;;;;5013526;28;20053;-63
2022/12/03 12:51:12;;;;;;;5.97;1.65;;;5.60;99.90;;;;;;5016424;28;20053;-63
2022/12/03 12:53:41;;;;;;;1.25;1.10;;;5.60;99.90;;;;;;5034598;28;20058;-63
2022/12/03 12:56:26;;;;;;;0.45;0.45;;;5.60;99.90;;;;;;5032871;28;20080;-63
2022/12/03 12:58:53;;;;;;;0.28;0.28;;;5.70;99.90;;;;;;5026353;28;20383;-63
2022/12/03 13:01:30;;;;;;;0.32;0.32;;;5.70;99.90;;;;;;5019250;28;20393;-63
2022/12/03 13:03:55;;;;;;;0.20;0.20;;;5.60;99.90;;;;;;5028331;28;20045;-63
2022/12/03 13:06:27;;;;;;;1.55;1.20;;;5.50;99.90;;;;;;5028320;28;20137;-64
2022/12/03 13:08:53;;;;;;;0.10;0.10;;;5.50;99.90;;;;;;5016921;28;20056;-63
2022/12/03 13:11:40;;;;;;;0.73;0.73;;;5.50;99.90;;;;;;5024108;28;20042;-63
2022/12/03 13:14:20;;;;;;;0.40;0.40;;;5.60;99.90;;;;;;5016426;28;20461;-63
2022/12/03 13:16:47;;;;;;;0.98;0.98;;;5.60;99.90;;;;;;5029386;28;20117;-63
2022/12/03 13:19:20;;;;;;;0.75;0.75;;;5.70;99.90;;;;;;5014854;28;20121;-63
2022/12/03 13:21:46;;;;;;;0.25;0.25;;;5.50;99.90;;;;;;5014538;28;20057;-63
2022/12/03 13:24:39;;;;;;;1.20;1.20;;;5.70;99.90;;;;;;5014881;28;20041;-63